Aviation Digital Data Service (ADDS)

Output produced by TAFs form (2346 UTC 18 July 2018)
found at http://www.aviationweather.gov/adds/tafs/
 
RJOA 182300Z 10004KT 040V160 8000 NSC 28/23 Q1013
TAF RJOA 182306Z 1900/2006 14005KT 9999 FEW025 
     TEMPO 1906/1910 TS FEW020 FEW025CB SCT035 
     BECMG 1909/1911 32004KT 
     BECMG 2000/2003 14006KT